sensor_id;sensor_type;location;lat;lon;timestamp;temperature;humidity
15888;DHT22;56032;51.324;12.376;2022-11-20T00:00:34;-2.30;99.90
15888;DHT22;56032;51.324;12.376;2022-11-20T00:03:02;-2.20;99.90
15888;DHT22;56032;51.324;12.376;2022-11-20T00:05:31;-2.30;99.90
15888;DHT22;56032;51.324;12.376;2022-11-20T00:08:00;-2.30;99.90
15888;DHT22;56032;51.324;12.376;2022-11-20T00:10:28;-2.30;99.90
15888;DHT22;56032;51.324;12.376;2022-11-20T00:12:58;-2.30;99.90
15888;DHT22;56032;51.324;12.376;2022-11-20T00:15:26;-2.30;99.90
15888;DHT22;56032;51.324;12.376;2022-11-20T00:17:55;-2.40;99.90
15888;DHT22;56032;51.324;12.376;2022-11-20T00:20:23;-2.40;99.90
15888;DHT22;56032;51.324;12.376;2022-11-20T00:22:51;-2.40;99.90
15888;DHT22;56032;51.324;12.376;2022-11-20T00:25:19;-2.30;99.90
15888;DHT22;56032;51.324;12.376;2022-11-20T00:27:47;-2.40;99.90
15888;DHT22;56032;51.324;12.376;2022-11-20T00:30:17;-2.40;99.90
15888;DHT22;56032;51.324;12.376;2022-11-20T00:32:46;-2.40;99.90
15888;DHT22;56032;51.324;12.376;2022-11-20T00:35:14;-2.40;99.90
15888;DHT22;56032;51.324;12.376;2022-11-20T00:37:42;-2.50;99.90
15888;DHT22;56032;51.324;12.376;2022-11-20T00:40:11;-2.50;99.90
15888;DHT22;56032;51.324;12.376;2022-11-20T00:42:39;-2.50;99.90
15888;DHT22;56032;51.324;12.376;2022-11-20T00:45:08;-2.40;99.90
15888;DHT22;56032;51.324;12.376;2022-11-20T00:47:37;-2.40;99.90
15888;DHT22;56032;51.324;12.376;2022-11-20T00:50:06;-2.40;99.90
15888;DHT22;56032;51.324;12.376;2022-11-20T00:52:34;-2.50;99.90
15888;DHT22;56032;51.324;12.376;2022-11-20T00:55:02;-2.60;99.90
15888;DHT22;56032;51.324;12.376;2022-11-20T00:57:31;-2.50;99.90
15888;DHT22;56032;51.324;12.376;2022-11-20T01:00:00;-2.50;99.90
15888;DHT22;56032;51.324;12.376;2022-11-20T01:02:28;-2.50;99.90
15888;DHT22;56032;51.324;12.376;2022-11-20T01:04:57;-2.60;99.90
15888;DHT22;56032;51.324;12.376;2022-11-20T01:07:25;-2.50;99.90
15888;DHT22;56032;51.324;12.376;2022-11-20T01:09:54;-2.60;99.90
15888;DHT22;56032;51.324;12.376;2022-11-20T01:12:22;-2.60;99.90
15888;DHT22;56032;51.324;12.376;2022-11-20T01:14:50;-2.50;99.90
15888;DHT22;56032;51.324;12.376;2022-11-20T01:17:18;-2.60;99.90
15888;DHT22;56032;51.324;12.376;2022-11-20T01:19:48;-2.70;99.90
15888;DHT22;56032;51.324;12.376;2022-11-20T01:22:18;-2.70;99.90
15888;DHT22;56032;51.324;12.376;2022-11-20T01:24:46;-2.70;99.90
15888;DHT22;56032;51.324;12.376;2022-11-20T01:27:14;-2.70;99.90
15888;DHT22;56032;51.324;12.376;2022-11-20T01:29:43;-2.70;99.90
15888;DHT22;56032;51.324;12.376;2022-11-20T01:32:11;-2.90;99.90
15888;DHT22;56032;51.324;12.376;2022-11-20T01:34:39;-2.80;99.90
15888;DHT22;56032;51.324;12.376;2022-11-20T01:37:07;-2.70;99.90
15888;DHT22;56032;51.324;12.376;2022-11-20T01:39:37;-2.80;99.90
15888;DHT22;56032;51.324;12.376;2022-11-20T01:42:05;-2.80;99.90
15888;DHT22;56032;51.324;12.376;2022-11-20T01:44:54;-2.80;99.90
15888;DHT22;56032;51.324;12.376;2022-11-20T01:47:27;-2.60;99.90
15888;DHT22;56032;51.324;12.376;2022-11-20T01:49:56;-2.80;99.90
15888;DHT22;56032;51.324;12.376;2022-11-20T01:52:27;-2.80;99.90
15888;DHT22;56032;51.324;12.376;2022-11-20T01:55:01;-2.80;99.90
15888;DHT22;56032;51.324;12.376;2022-11-20T01:57:29;-2.80;99.90
15888;DHT22;56032;51.324;12.376;2022-11-20T02:00:00;-2.80;99.90
15888;DHT22;56032;51.324;12.376;2022-11-20T02:02:29;-2.80;99.90
15888;DHT22;56032;51.324;12.376;2022-11-20T02:04:58;-2.80;99.90
15888;DHT22;56032;51.324;12.376;2022-11-20T02:07:28;-2.70;99.90
15888;DHT22;56032;51.324;12.376;2022-11-20T02:09:57;-2.70;99.90
15888;DHT22;56032;51.324;12.376;2022-11-20T02:12:27;-2.70;99.90
15888;DHT22;56032;51.324;12.376;2022-11-20T02:15:13;-2.80;99.90
15888;DHT22;56032;51.324;12.376;2022-11-20T02:17:41;-2.80;99.90
15888;DHT22;56032;51.324;12.376;2022-11-20T02:20:10;-2.80;99.90
15888;DHT22;56032;51.324;12.376;2022-11-20T02:22:39;-2.90;99.90
15888;DHT22;56032;51.324;12.376;2022-11-20T02:25:13;-3.00;99.90
15888;DHT22;56032;51.324;12.376;2022-11-20T02:27:42;-2.90;99.90
15888;DHT22;56032;51.324;12.376;2022-11-20T02:30:11;-2.90;99.90
15888;DHT22;56032;51.324;12.376;2022-11-20T02:32:39;-2.90;99.90
15888;DHT22;56032;51.324;12.376;2022-11-20T02:35:08;-2.90;99.90
15888;DHT22;56032;51.324;12.376;2022-11-20T02:37:37;-2.90;99.90
15888;DHT22;56032;51.324;12.376;2022-11-20T02:40:07;-2.90;99.90
15888;DHT22;56032;51.324;12.376;2022-11-20T02:42:37;-3.00;99.90
15888;DHT22;56032;51.324;12.376;2022-11-20T02:45:05;-3.00;99.90
15888;DHT22;56032;51.324;12.376;2022-11-20T02:47:34;-3.00;99.90
15888;DHT22;56032;51.324;12.376;2022-11-20T02:50:03;-3.10;99.90
15888;DHT22;56032;51.324;12.376;2022-11-20T02:52:32;-3.10;99.90
15888;DHT22;56032;51.324;12.376;2022-11-20T02:55:01;-3.10;99.90
15888;DHT22;56032;51.324;12.376;2022-11-20T02:57:29;-3.20;99.90
15888;DHT22;56032;51.324;12.376;2022-11-20T02:59:59;-3.30;99.90
15888;DHT22;56032;51.324;12.376;2022-11-20T03:02:29;-3.20;99.90
15888;DHT22;56032;51.324;12.376;2022-11-20T03:04:57;-3.30;99.90
15888;DHT22;56032;51.324;12.376;2022-11-20T03:07:25;-3.30;99.90
15888;DHT22;56032;51.324;12.376;2022-11-20T03:09:53;-2.90;99.90
15888;DHT22;56032;51.324;12.376;2022-11-20T03:12:22;-3.30;99.90
15888;DHT22;56032;51.324;12.376;2022-11-20T03:14:50;-3.30;99.90
15888;DHT22;56032;51.324;12.376;2022-11-20T03:17:20;-3.30;99.90
15888;DHT22;56032;51.324;12.376;2022-11-20T03:19:48;-3.20;99.90
15888;DHT22;56032;51.324;12.376;2022-11-20T03:22:16;-3.20;99.90
15888;DHT22;56032;51.324;12.376;2022-11-20T03:24:45;-3.20;99.90
15888;DHT22;56032;51.324;12.376;2022-11-20T03:27:13;-3.20;99.90
15888;DHT22;56032;51.324;12.376;2022-11-20T03:29:41;-3.20;99.90
15888;DHT22;56032;51.324;12.376;2022-11-20T03:32:09;-3.30;99.90
15888;DHT22;56032;51.324;12.376;2022-11-20T03:34:39;-3.40;99.90
15888;DHT22;56032;51.324;12.376;2022-11-20T03:37:07;-3.40;99.90
15888;DHT22;56032;51.324;12.376;2022-11-20T03:39:35;-3.40;99.90
15888;DHT22;56032;51.324;12.376;2022-11-20T03:42:03;-3.40;99.90
15888;DHT22;56032;51.324;12.376;2022-11-20T03:44:52;-3.40;99.90
15888;DHT22;56032;51.324;12.376;2022-11-20T03:47:20;-3.40;99.90
15888;DHT22;56032;51.324;12.376;2022-11-20T03:49:50;-3.40;99.90
15888;DHT22;56032;51.324;12.376;2022-11-20T03:52:18;-3.20;99.90
15888;DHT22;56032;51.324;12.376;2022-11-20T03:54:46;-3.40;99.90
15888;DHT22;56032;51.324;12.376;2022-11-20T03:57:14;-3.50;99.90
15888;DHT22;56032;51.324;12.376;2022-11-20T03:59:43;-3.20;99.90
15888;DHT22;56032;51.324;12.376;2022-11-20T04:02:11;-3.40;99.90
15888;DHT22;56032;51.324;12.376;2022-11-20T04:04:39;-3.40;99.90
15888;DHT22;56032;51.324;12.376;2022-11-20T04:07:09;-3.40;99.90
15888;DHT22;56032;51.324;12.376;2022-11-20T04:09:38;-3.40;99.90
15888;DHT22;56032;51.324;12.376;2022-11-20T04:14:52;-3.30;99.90
15888;DHT22;56032;51.324;12.376;2022-11-20T04:17:20;-3.30;99.90
15888;DHT22;56032;51.324;12.376;2022-11-20T04:19:49;-3.30;99.90
15888;DHT22;56032;51.324;12.376;2022-11-20T04:22:18;-3.40;99.90
15888;DHT22;56032;51.324;12.376;2022-11-20T04:24:48;-3.50;99.90
15888;DHT22;56032;51.324;12.376;2022-11-20T04:27:16;-3.40;99.90
15888;DHT22;56032;51.324;12.376;2022-11-20T04:29:44;-2.90;99.90
15888;DHT22;56032;51.324;12.376;2022-11-20T04:32:12;-3.40;99.90
15888;DHT22;56032;51.324;12.376;2022-11-20T04:34:40;-3.40;99.90
15888;DHT22;56032;51.324;12.376;2022-11-20T04:37:09;-3.40;99.90
15888;DHT22;56032;51.324;12.376;2022-11-20T04:39:38;-3.50;99.90
15888;DHT22;56032;51.324;12.376;2022-11-20T04:42:08;-3.50;99.90
15888;DHT22;56032;51.324;12.376;2022-11-20T04:44:54;-3.50;99.90
15888;DHT22;56032;51.324;12.376;2022-11-20T04:47:22;-3.50;99.90
15888;DHT22;56032;51.324;12.376;2022-11-20T04:49:50;-3.50;99.90
15888;DHT22;56032;51.324;12.376;2022-11-20T04:52:18;-3.40;99.90
15888;DHT22;56032;51.324;12.376;2022-11-20T04:54:48;-3.40;99.90
15888;DHT22;56032;51.324;12.376;2022-11-20T04:57:19;-3.50;99.90
15888;DHT22;56032;51.324;12.376;2022-11-20T04:59:47;-3.50;99.90
15888;DHT22;56032;51.324;12.376;2022-11-20T05:02:16;-3.60;99.90
15888;DHT22;56032;51.324;12.376;2022-11-20T05:04:44;-3.30;99.90
15888;DHT22;56032;51.324;12.376;2022-11-20T05:07:12;-3.70;99.90
15888;DHT22;56032;51.324;12.376;2022-11-20T05:09:40;-3.70;99.90
15888;DHT22;56032;51.324;12.376;2022-11-20T05:12:10;-3.70;99.90
15888;DHT22;56032;51.324;12.376;2022-11-20T05:14:38;-3.70;99.90
15888;DHT22;56032;51.324;12.376;2022-11-20T05:17:09;-3.80;99.90
15888;DHT22;56032;51.324;12.376;2022-11-20T05:19:37;-3.70;99.90
15888;DHT22;56032;51.324;12.376;2022-11-20T05:22:05;-3.80;99.90
15888;DHT22;56032;51.324;12.376;2022-11-20T05:24:33;-3.80;99.90
15888;DHT22;56032;51.324;12.376;2022-11-20T05:27:02;-3.80;99.90
15888;DHT22;56032;51.324;12.376;2022-11-20T05:29:31;-3.80;99.90
15888;DHT22;56032;51.324;12.376;2022-11-20T05:32:00;-3.80;99.90
15888;DHT22;56032;51.324;12.376;2022-11-20T05:34:28;-3.80;99.90
15888;DHT22;56032;51.324;12.376;2022-11-20T05:36:56;-3.80;99.90
15888;DHT22;56032;51.324;12.376;2022-11-20T05:39:24;-3.80;99.90
15888;DHT22;56032;51.324;12.376;2022-11-20T05:41:52;-3.80;99.90
15888;DHT22;56032;51.324;12.376;2022-11-20T05:44:36;-3.80;99.90
15888;DHT22;56032;51.324;12.376;2022-11-20T05:47:04;-3.80;99.90
15888;DHT22;56032;51.324;12.376;2022-11-20T05:49:32;-3.80;99.90
15888;DHT22;56032;51.324;12.376;2022-11-20T05:52:00;-3.80;99.90
15888;DHT22;56032;51.324;12.376;2022-11-20T05:54:29;-3.70;99.90
15888;DHT22;56032;51.324;12.376;2022-11-20T05:56:57;-3.80;99.90
15888;DHT22;56032;51.324;12.376;2022-11-20T05:59:25;-3.80;99.90
15888;DHT22;56032;51.324;12.376;2022-11-20T06:01:55;-3.80;99.90
15888;DHT22;56032;51.324;12.376;2022-11-20T06:04:23;-3.70;99.90
15888;DHT22;56032;51.324;12.376;2022-11-20T06:06:51;-3.80;99.90
15888;DHT22;56032;51.324;12.376;2022-11-20T06:09:19;-3.80;99.90
15888;DHT22;56032;51.324;12.376;2022-11-20T06:11:47;-3.80;99.90
15888;DHT22;56032;51.324;12.376;2022-11-20T06:14:16;-3.80;99.90
15888;DHT22;56032;51.324;12.376;2022-11-20T06:16:44;-3.50;99.90
15888;DHT22;56032;51.324;12.376;2022-11-20T06:19:13;-3.80;99.90
15888;DHT22;56032;51.324;12.376;2022-11-20T06:21:42;-3.80;99.90
15888;DHT22;56032;51.324;12.376;2022-11-20T06:24:11;-3.80;99.90
15888;DHT22;56032;51.324;12.376;2022-11-20T06:26:42;-3.90;99.90
15888;DHT22;56032;51.324;12.376;2022-11-20T06:29:10;-3.90;99.90
15888;DHT22;56032;51.324;12.376;2022-11-20T06:31:39;-3.90;99.90
15888;DHT22;56032;51.324;12.376;2022-11-20T06:34:09;-3.90;99.90
15888;DHT22;56032;51.324;12.376;2022-11-20T06:36:38;-3.90;99.90
15888;DHT22;56032;51.324;12.376;2022-11-20T06:39:07;-3.90;99.90
15888;DHT22;56032;51.324;12.376;2022-11-20T06:41:35;-3.90;99.90
15888;DHT22;56032;51.324;12.376;2022-11-20T06:44:03;-3.80;99.90
15888;DHT22;56032;51.324;12.376;2022-11-20T06:46:31;-3.90;99.90
15888;DHT22;56032;51.324;12.376;2022-11-20T06:49:00;-4.00;99.90
15888;DHT22;56032;51.324;12.376;2022-11-20T06:51:28;-4.00;99.90
15888;DHT22;56032;51.324;12.376;2022-11-20T06:53:57;-4.00;99.90
15888;DHT22;56032;51.324;12.376;2022-11-20T06:56:27;-3.90;99.90
15888;DHT22;56032;51.324;12.376;2022-11-20T06:58:55;-4.00;99.90
15888;DHT22;56032;51.324;12.376;2022-11-20T07:01:23;-4.00;99.90
15888;DHT22;56032;51.324;12.376;2022-11-20T07:03:52;-3.90;99.90
15888;DHT22;56032;51.324;12.376;2022-11-20T07:06:20;-3.90;99.90
15888;DHT22;56032;51.324;12.376;2022-11-20T07:08:49;-3.90;99.90
15888;DHT22;56032;51.324;12.376;2022-11-20T07:11:19;-3.60;99.90
15888;DHT22;56032;51.324;12.376;2022-11-20T07:13:47;-3.90;99.90
15888;DHT22;56032;51.324;12.376;2022-11-20T07:16:16;-3.80;99.90
15888;DHT22;56032;51.324;12.376;2022-11-20T07:18:44;-3.90;99.90
15888;DHT22;56032;51.324;12.376;2022-11-20T07:21:16;-3.90;99.90
15888;DHT22;56032;51.324;12.376;2022-11-20T07:23:44;-3.90;99.90
15888;DHT22;56032;51.324;12.376;2022-11-20T07:26:12;-3.90;99.90
15888;DHT22;56032;51.324;12.376;2022-11-20T07:28:43;-3.90;99.90
15888;DHT22;56032;51.324;12.376;2022-11-20T07:31:11;-3.70;99.90
15888;DHT22;56032;51.324;12.376;2022-11-20T07:33:45;-3.70;99.90
15888;DHT22;56032;51.324;12.376;2022-11-20T07:36:13;-3.60;99.90
15888;DHT22;56032;51.324;12.376;2022-11-20T07:38:41;-3.50;99.90
15888;DHT22;56032;51.324;12.376;2022-11-20T07:41:11;-3.50;99.90
15888;DHT22;56032;51.324;12.376;2022-11-20T07:43:39;-3.50;99.90
15888;DHT22;56032;51.324;12.376;2022-11-20T07:46:09;-3.50;99.90
15888;DHT22;56032;51.324;12.376;2022-11-20T07:48:37;-3.40;99.90
15888;DHT22;56032;51.324;12.376;2022-11-20T07:51:05;-3.30;99.90
15888;DHT22;56032;51.324;12.376;2022-11-20T07:53:33;-3.30;99.90
15888;DHT22;56032;51.324;12.376;2022-11-20T07:56:02;-3.20;99.90
15888;DHT22;56032;51.324;12.376;2022-11-20T07:58:30;-3.20;99.90
15888;DHT22;56032;51.324;12.376;2022-11-20T08:01:02;-3.10;99.90
15888;DHT22;56032;51.324;12.376;2022-11-20T08:03:32;-3.10;99.90
15888;DHT22;56032;51.324;12.376;2022-11-20T08:06:01;-3.00;99.90
15888;DHT22;56032;51.324;12.376;2022-11-20T08:08:29;-3.00;99.90
15888;DHT22;56032;51.324;12.376;2022-11-20T08:10:59;-2.80;99.90
15888;DHT22;56032;51.324;12.376;2022-11-20T08:13:42;-2.90;99.90
15888;DHT22;56032;51.324;12.376;2022-11-20T08:16:25;-2.80;99.90
15888;DHT22;56032;51.324;12.376;2022-11-20T08:18:54;-2.60;99.90
15888;DHT22;56032;51.324;12.376;2022-11-20T08:21:23;-2.60;99.90
15888;DHT22;56032;51.324;12.376;2022-11-20T08:23:52;-2.60;99.90
15888;DHT22;56032;51.324;12.376;2022-11-20T08:26:21;-2.60;99.90
15888;DHT22;56032;51.324;12.376;2022-11-20T08:28:49;-2.70;99.90
15888;DHT22;56032;51.324;12.376;2022-11-20T08:31:17;-2.70;99.90
15888;DHT22;56032;51.324;12.376;2022-11-20T08:33:45;-2.40;99.90
15888;DHT22;56032;51.324;12.376;2022-11-20T08:36:15;-2.50;99.90
15888;DHT22;56032;51.324;12.376;2022-11-20T08:38:46;-2.50;99.90
15888;DHT22;56032;51.324;12.376;2022-11-20T08:41:15;-2.50;99.90
15888;DHT22;56032;51.324;12.376;2022-11-20T08:43:54;-2.50;99.90
15888;DHT22;56032;51.324;12.376;2022-11-20T08:46:24;-2.50;99.90
15888;DHT22;56032;51.324;12.376;2022-11-20T08:48:53;-2.40;99.90
15888;DHT22;56032;51.324;12.376;2022-11-20T08:51:22;-2.30;99.90
15888;DHT22;56032;51.324;12.376;2022-11-20T08:53:51;-2.20;99.90
15888;DHT22;56032;51.324;12.376;2022-11-20T08:56:19;-2.20;99.90
15888;DHT22;56032;51.324;12.376;2022-11-20T08:58:47;-2.00;99.90
15888;DHT22;56032;51.324;12.376;2022-11-20T09:01:35;-2.20;99.90
15888;DHT22;56032;51.324;12.376;2022-11-20T09:04:03;-2.20;99.90
15888;DHT22;56032;51.324;12.376;2022-11-20T09:06:33;-2.20;99.90
15888;DHT22;56032;51.324;12.376;2022-11-20T09:09:02;-2.10;99.90
15888;DHT22;56032;51.324;12.376;2022-11-20T09:11:32;-2.00;99.90
15888;DHT22;56032;51.324;12.376;2022-11-20T09:14:02;-2.00;99.90
15888;DHT22;56032;51.324;12.376;2022-11-20T09:16:31;-1.80;99.90
15888;DHT22;56032;51.324;12.376;2022-11-20T09:18:59;-1.80;99.90
15888;DHT22;56032;51.324;12.376;2022-11-20T09:21:49;-1.70;99.90
15888;DHT22;56032;51.324;12.376;2022-11-20T09:24:23;-1.70;99.90
15888;DHT22;56032;51.324;12.376;2022-11-20T09:26:52;-1.70;99.90
15888;DHT22;56032;51.324;12.376;2022-11-20T09:29:20;-1.50;99.90
15888;DHT22;56032;51.324;12.376;2022-11-20T09:31:49;-1.70;99.90
15888;DHT22;56032;51.324;12.376;2022-11-20T09:34:17;-1.60;99.90
15888;DHT22;56032;51.324;12.376;2022-11-20T09:36:45;-1.50;99.90
15888;DHT22;56032;51.324;12.376;2022-11-20T09:39:15;-1.50;99.90
15888;DHT22;56032;51.324;12.376;2022-11-20T09:41:51;-1.30;99.90
15888;DHT22;56032;51.324;12.376;2022-11-20T09:44:30;-1.20;99.90
15888;DHT22;56032;51.324;12.376;2022-11-20T09:47:01;-1.30;99.90
15888;DHT22;56032;51.324;12.376;2022-11-20T09:49:32;-1.20;99.90
15888;DHT22;56032;51.324;12.376;2022-11-20T09:52:07;-1.10;99.90
15888;DHT22;56032;51.324;12.376;2022-11-20T09:54:39;-1.10;99.90
15888;DHT22;56032;51.324;12.376;2022-11-20T09:57:10;-1.10;99.90
15888;DHT22;56032;51.324;12.376;2022-11-20T09:59:39;-1.20;99.90
15888;DHT22;56032;51.324;12.376;2022-11-20T10:02:14;-1.20;99.90
15888;DHT22;56032;51.324;12.376;2022-11-20T10:04:44;-1.00;99.90
15888;DHT22;56032;51.324;12.376;2022-11-20T10:07:15;-1.00;99.90
15888;DHT22;56032;51.324;12.376;2022-11-20T10:10:01;-1.10;99.90
15888;DHT22;56032;51.324;12.376;2022-11-20T10:12:32;-1.10;99.90
15888;DHT22;56032;51.324;12.376;2022-11-20T10:15:05;-1.10;99.90
15888;DHT22;56032;51.324;12.376;2022-11-20T10:17:46;-1.10;99.90
15888;DHT22;56032;51.324;12.376;2022-11-20T10:20:17;-1.10;99.90
15888;DHT22;56032;51.324;12.376;2022-11-20T10:22:52;-1.10;99.90
15888;DHT22;56032;51.324;12.376;2022-11-20T10:25:29;-1.00;99.90
15888;DHT22;56032;51.324;12.376;2022-11-20T10:28:06;-1.10;99.90
15888;DHT22;56032;51.324;12.376;2022-11-20T10:30:37;-1.00;99.90
15888;DHT22;56032;51.324;12.376;2022-11-20T10:33:15;-0.90;99.90
15888;DHT22;56032;51.324;12.376;2022-11-20T10:35:45;-0.90;99.90
15888;DHT22;56032;51.324;12.376;2022-11-20T10:38:18;-0.90;99.90
15888;DHT22;56032;51.324;12.376;2022-11-20T10:40:51;-0.80;99.90
15888;DHT22;56032;51.324;12.376;2022-11-20T10:43:21;-0.90;99.90
15888;DHT22;56032;51.324;12.376;2022-11-20T10:45:53;-0.90;99.90
15888;DHT22;56032;51.324;12.376;2022-11-20T10:48:24;-0.80;99.90
15888;DHT22;56032;51.324;12.376;2022-11-20T10:51:05;-0.70;99.90
15888;DHT22;56032;51.324;12.376;2022-11-20T10:53:47;-0.70;99.90
15888;DHT22;56032;51.324;12.376;2022-11-20T10:56:20;-0.60;99.90
15888;DHT22;56032;51.324;12.376;2022-11-20T10:58:52;-0.70;99.90
15888;DHT22;56032;51.324;12.376;2022-11-20T11:01:22;-0.60;99.90
15888;DHT22;56032;51.324;12.376;2022-11-20T11:03:51;-0.60;99.90
15888;DHT22;56032;51.324;12.376;2022-11-20T11:06:21;-0.60;99.90
15888;DHT22;56032;51.324;12.376;2022-11-20T11:08:53;-0.60;99.90
15888;DHT22;56032;51.324;12.376;2022-11-20T11:11:26;-0.50;99.90
15888;DHT22;56032;51.324;12.376;2022-11-20T11:14:04;-0.30;99.90
15888;DHT22;56032;51.324;12.376;2022-11-20T11:16:34;-0.30;99.90
15888;DHT22;56032;51.324;12.376;2022-11-20T11:19:05;-0.30;99.90
15888;DHT22;56032;51.324;12.376;2022-11-20T11:21:33;-0.20;99.90
15888;DHT22;56032;51.324;12.376;2022-11-20T11:24:03;-0.20;99.90
15888;DHT22;56032;51.324;12.376;2022-11-20T11:26:54;-0.20;99.90
15888;DHT22;56032;51.324;12.376;2022-11-20T11:29:23;-0.20;99.90
15888;DHT22;56032;51.324;12.376;2022-11-20T11:32:02;-0.30;99.90
15888;DHT22;56032;51.324;12.376;2022-11-20T11:34:33;-0.20;99.90
15888;DHT22;56032;51.324;12.376;2022-11-20T11:37:01;-0.10;99.90
15888;DHT22;56032;51.324;12.376;2022-11-20T11:39:31;0.00;99.90
15888;DHT22;56032;51.324;12.376;2022-11-20T11:42:01;0.00;99.90
15888;DHT22;56032;51.324;12.376;2022-11-20T11:44:31;0.00;99.90
15888;DHT22;56032;51.324;12.376;2022-11-20T11:47:20;0.00;99.90
15888;DHT22;56032;51.324;12.376;2022-11-20T11:50:00;0.10;99.90
15888;DHT22;56032;51.324;12.376;2022-11-20T11:52:28;0.20;99.90
15888;DHT22;56032;51.324;12.376;2022-11-20T11:54:57;0.30;99.90
15888;DHT22;56032;51.324;12.376;2022-11-20T11:57:28;0.30;99.90
15888;DHT22;56032;51.324;12.376;2022-11-20T12:00:00;0.40;99.90
15888;DHT22;56032;51.324;12.376;2022-11-20T12:02:31;0.50;99.90
15888;DHT22;56032;51.324;12.376;2022-11-20T12:05:03;0.50;99.90
15888;DHT22;56032;51.324;12.376;2022-11-20T12:07:37;0.40;99.90
15888;DHT22;56032;51.324;12.376;2022-11-20T12:10:16;0.40;99.90
15888;DHT22;56032;51.324;12.376;2022-11-20T12:12:46;0.40;99.90
15888;DHT22;56032;51.324;12.376;2022-11-20T12:15:19;0.40;99.90
15888;DHT22;56032;51.324;12.376;2022-11-20T12:17:51;0.30;99.90
15888;DHT22;56032;51.324;12.376;2022-11-20T12:20:19;0.30;99.90
15888;DHT22;56032;51.324;12.376;2022-11-20T12:22:52;0.40;99.90
15888;DHT22;56032;51.324;12.376;2022-11-20T12:25:24;0.40;99.90
15888;DHT22;56032;51.324;12.376;2022-11-20T12:27:58;0.40;99.90
15888;DHT22;56032;51.324;12.376;2022-11-20T12:30:29;0.40;99.90
15888;DHT22;56032;51.324;12.376;2022-11-20T12:33:04;0.50;99.90
15888;DHT22;56032;51.324;12.376;2022-11-20T12:35:38;0.50;99.90
15888;DHT22;56032;51.324;12.376;2022-11-20T12:38:26;0.50;99.90
15888;DHT22;56032;51.324;12.376;2022-11-20T12:40:57;0.50;99.90
15888;DHT22;56032;51.324;12.376;2022-11-20T12:43:28;0.60;99.90
15888;DHT22;56032;51.324;12.376;2022-11-20T12:46:18;0.60;99.90
15888;DHT22;56032;51.324;12.376;2022-11-20T12:49:03;0.60;99.90
15888;DHT22;56032;51.324;12.376;2022-11-20T12:51:47;0.60;99.90
15888;DHT22;56032;51.324;12.376;2022-11-20T12:54:25;0.60;99.90
15888;DHT22;56032;51.324;12.376;2022-11-20T12:56:58;0.60;99.90
15888;DHT22;56032;51.324;12.376;2022-11-20T12:59:44;0.60;99.90
15888;DHT22;56032;51.324;12.376;2022-11-20T13:02:19;0.60;99.90
15888;DHT22;56032;51.324;12.376;2022-11-20T13:05:03;0.60;99.90
15888;DHT22;56032;51.324;12.376;2022-11-20T13:07:34;0.60;99.90
15888;DHT22;56032;51.324;12.376;2022-11-20T13:10:03;0.60;99.90
15888;DHT22;56032;51.324;12.376;2022-11-20T13:12:40;0.60;99.90
15888;DHT22;56032;51.324;12.376;2022-11-20T13:15:16;0.60;99.90
15888;DHT22;56032;51.324;12.376;2022-11-20T13:17:46;0.70;99.90
15888;DHT22;56032;51.324;12.376;2022-11-20T13:20:17;0.80;99.90
15888;DHT22;56032;51.324;12.376;2022-11-20T13:22:46;0.80;99.90
15888;DHT22;56032;51.324;12.376;2022-11-20T13:25:24;0.80;99.90
15888;DHT22;56032;51.324;12.376;2022-11-20T13:27:53;0.80;99.90
15888;DHT22;56032;51.324;12.376;2022-11-20T13:30:23;0.80;99.90
15888;DHT22;56032;51.324;12.376;2022-11-20T13:32:52;0.80;99.90
15888;DHT22;56032;51.324;12.376;2022-11-20T13:35:24;0.80;99.90
15888;DHT22;56032;51.324;12.376;2022-11-20T13:38:00;0.80;99.90
15888;DHT22;56032;51.324;12.376;2022-11-20T13:40:28;0.90;99.90
15888;DHT22;56032;51.324;12.376;2022-11-20T13:43:01;1.10;99.90
15888;DHT22;56032;51.324;12.376;2022-11-20T13:45:31;1.00;99.90
15888;DHT22;56032;51.324;12.376;2022-11-20T13:48:01;0.90;99.90
15888;DHT22;56032;51.324;12.376;2022-11-20T13:50:40;0.90;99.90
15888;DHT22;56032;51.324;12.376;2022-11-20T13:53:12;0.90;99.90
15888;DHT22;56032;51.324;12.376;2022-11-20T13:55:47;0.90;99.90
15888;DHT22;56032;51.324;12.376;2022-11-20T13:58:21;0.60;99.90
15888;DHT22;56032;51.324;12.376;2022-11-20T14:00:55;0.90;99.90
15888;DHT22;56032;51.324;12.376;2022-11-20T14:03:29;0.90;99.90
15888;DHT22;56032;51.324;12.376;2022-11-20T14:06:23;0.90;99.90
15888;DHT22;56032;51.324;12.376;2022-11-20T14:08:53;0.90;99.90
15888;DHT22;56032;51.324;12.376;2022-11-20T14:11:23;0.90;99.90
15888;DHT22;56032;51.324;12.376;2022-11-20T14:13:56;0.80;99.90
15888;DHT22;56032;51.324;12.376;2022-11-20T14:16:31;0.90;99.90
15888;DHT22;56032;51.324;12.376;2022-11-20T14:19:17;0.80;99.90
15888;DHT22;56032;51.324;12.376;2022-11-20T14:21:51;0.80;99.90
15888;DHT22;56032;51.324;12.376;2022-11-20T14:24:20;0.80;99.90
15888;DHT22;56032;51.324;12.376;2022-11-20T14:26:49;0.60;99.90
15888;DHT22;56032;51.324;12.376;2022-11-20T14:29:19;0.70;99.90
15888;DHT22;56032;51.324;12.376;2022-11-20T14:31:50;0.60;99.90
15888;DHT22;56032;51.324;12.376;2022-11-20T14:34:20;0.60;99.90
15888;DHT22;56032;51.324;12.376;2022-11-20T14:36:50;0.50;99.90
15888;DHT22;56032;51.324;12.376;2022-11-20T14:39:20;0.50;99.90
15888;DHT22;56032;51.324;12.376;2022-11-20T14:41:50;0.50;99.90
15888;DHT22;56032;51.324;12.376;2022-11-20T14:44:19;0.50;99.90
15888;DHT22;56032;51.324;12.376;2022-11-20T14:46:52;0.40;99.90
15888;DHT22;56032;51.324;12.376;2022-11-20T14:49:20;0.40;99.90
15888;DHT22;56032;51.324;12.376;2022-11-20T14:51:57;0.30;99.90
15888;DHT22;56032;51.324;12.376;2022-11-20T14:54:26;0.20;99.90
15888;DHT22;56032;51.324;12.376;2022-11-20T14:56:57;0.30;99.90
15888;DHT22;56032;51.324;12.376;2022-11-20T14:59:27;0.20;99.90
15888;DHT22;56032;51.324;12.376;2022-11-20T15:01:58;0.20;99.90
15888;DHT22;56032;51.324;12.376;2022-11-20T15:04:27;0.20;99.90
15888;DHT22;56032;51.324;12.376;2022-11-20T15:06:56;0.10;99.90
15888;DHT22;56032;51.324;12.376;2022-11-20T15:09:25;0.10;99.90
15888;DHT22;56032;51.324;12.376;2022-11-20T15:11:54;0.10;99.90
15888;DHT22;56032;51.324;12.376;2022-11-20T15:14:24;0.00;99.90
15888;DHT22;56032;51.324;12.376;2022-11-20T15:16:54;0.00;99.90
15888;DHT22;56032;51.324;12.376;2022-11-20T15:19:25;-0.10;99.90
15888;DHT22;56032;51.324;12.376;2022-11-20T15:21:54;-0.10;99.90
15888;DHT22;56032;51.324;12.376;2022-11-20T15:24:23;-0.20;99.90
15888;DHT22;56032;51.324;12.376;2022-11-20T15:26:51;-0.20;99.90
15888;DHT22;56032;51.324;12.376;2022-11-20T15:29:21;-0.20;99.90
15888;DHT22;56032;51.324;12.376;2022-11-20T15:31:51;-0.30;99.90
15888;DHT22;56032;51.324;12.376;2022-11-20T15:34:21;-0.30;99.90
15888;DHT22;56032;51.324;12.376;2022-11-20T15:36:51;-0.30;99.90
15888;DHT22;56032;51.324;12.376;2022-11-20T15:39:19;-0.40;99.90
15888;DHT22;56032;51.324;12.376;2022-11-20T15:41:48;-0.40;99.90
15888;DHT22;56032;51.324;12.376;2022-11-20T15:44:17;-0.40;99.90